createdAt,value
2018-09-17T00:00:03.428Z,11.74
2018-09-17T00:05:03.424Z,11.75
2018-09-17T00:10:03.433Z,11.87
2018-09-17T00:15:03.436Z,11.79
2018-09-17T00:20:03.436Z,11.64
2018-09-17T00:25:03.456Z,11.53
2018-09-17T00:30:03.437Z,11.39
2018-09-17T00:35:03.441Z,11.28
2018-09-17T00:40:03.453Z,11.27
2018-09-17T00:45:03.450Z,11.26
2018-09-17T00:50:03.449Z,11.25
2018-09-17T00:55:03.464Z,11.28
2018-09-17T01:00:03.457Z,11.33
2018-09-17T01:05:03.457Z,11.32
2018-09-17T01:10:03.486Z,11.37
2018-09-17T01:15:03.461Z,11.29
2018-09-17T01:20:03.466Z,11.28
2018-09-17T01:25:03.475Z,11.26
2018-09-17T01:30:03.470Z,11.17
2018-09-17T01:35:03.475Z,11.18
2018-09-17T01:40:03.483Z,11.12
2018-09-17T01:45:03.477Z,11.01
2018-09-17T01:50:03.483Z,10.96
2018-09-17T01:55:03.489Z,11.12
2018-09-17T02:00:03.487Z,11.25
2018-09-17T02:05:03.491Z,11.37
2018-09-17T02:10:03.533Z,11.54
2018-09-17T02:15:03.499Z,11.63
2018-09-17T02:20:03.501Z,11.6
2018-09-17T02:25:03.520Z,11.63
2018-09-17T02:30:03.503Z,11.59
2018-09-17T02:35:03.511Z,11.51
2018-09-17T02:40:03.534Z,11.34
2018-09-17T02:45:03.514Z,11.29
2018-09-17T02:50:03.520Z,11.37
2018-09-17T02:55:03.522Z,11.22
2018-09-17T03:00:03.521Z,11.05
2018-09-17T03:05:03.523Z,11.05
2018-09-17T03:10:03.536Z,11.02
2018-09-17T03:15:03.529Z,11.1
2018-09-17T03:20:03.533Z,11.2
2018-09-17T03:25:03.536Z,11.4
2018-09-17T03:30:03.531Z,11.64
2018-09-17T03:35:03.536Z,11.74
2018-09-17T03:40:03.550Z,11.69
2018-09-17T03:45:03.558Z,11.66
2018-09-17T03:50:03.547Z,11.53
2018-09-17T03:55:03.556Z,11.46
2018-09-17T04:00:03.552Z,11.45
2018-09-17T04:05:03.553Z,11.4
2018-09-17T04:10:03.577Z,11.41
2018-09-17T04:15:03.564Z,11.44
2018-09-17T04:20:03.565Z,11.45
2018-09-17T04:25:03.578Z,11.51
2018-09-17T04:30:03.568Z,11.53
2018-09-17T04:35:03.574Z,11.69
2018-09-17T04:40:03.588Z,11.75
2018-09-17T04:45:03.578Z,11.67
2018-09-17T04:50:03.579Z,11.61
2018-09-17T04:55:03.601Z,11.61
2018-09-17T05:00:03.588Z,11.64
2018-09-17T05:05:03.591Z,11.77
2018-09-17T05:10:03.599Z,11.83
2018-09-17T05:15:03.592Z,11.86
2018-09-17T05:20:03.598Z,11.84
2018-09-17T05:25:03.609Z,11.72
2018-09-17T05:30:03.606Z,11.63
2018-09-17T05:35:03.634Z,11.55
2018-09-17T05:40:03.629Z,11.58
2018-09-17T05:45:03.613Z,11.62
2018-09-17T05:50:03.621Z,11.7
2018-09-17T05:55:03.639Z,11.76
2018-09-17T06:00:03.626Z,11.9
2018-09-17T06:05:03.628Z,12.05
2018-09-17T06:10:03.633Z,12.25
2018-09-17T06:15:03.636Z,12.4
2018-09-17T06:20:03.632Z,12.57
2018-09-17T06:25:03.651Z,12.84
2018-09-17T06:30:03.642Z,13.22
2018-09-17T06:35:03.641Z,13.64
2018-09-17T06:40:03.651Z,13.99
2018-09-17T06:45:03.711Z,14.28
2018-09-17T06:50:03.650Z,14.5
2018-09-17T06:55:03.660Z,14.69
2018-09-17T07:00:03.651Z,14.82
2018-09-17T07:05:03.657Z,14.93
2018-09-17T07:10:03.670Z,15.03
2018-09-17T07:15:03.678Z,15.16
2018-09-17T07:20:03.667Z,15.29
2018-09-17T07:25:03.686Z,15.36
2018-09-17T07:30:03.669Z,15.45
2018-09-17T07:35:03.672Z,15.55
2018-09-17T07:40:03.689Z,15.58
2018-09-17T07:45:03.679Z,15.61
2018-09-17T07:50:03.699Z,15.7
2018-09-17T07:55:03.690Z,15.92
2018-09-17T08:00:03.686Z,16.27
2018-09-17T08:05:03.737Z,16.8
2018-09-17T08:10:03.700Z,17.32
2018-09-17T08:15:03.693Z,17.67
2018-09-17T08:20:03.714Z,17.7
2018-09-17T08:25:03.714Z,17.77
2018-09-17T08:30:03.708Z,17.84
2018-09-17T08:35:03.705Z,17.87
2018-09-17T08:40:03.724Z,17.89
2018-09-17T08:45:03.708Z,18
2018-09-17T08:50:03.707Z,18.1
2018-09-17T08:55:03.724Z,18.22
2018-09-17T09:00:03.715Z,18.46
2018-09-17T09:05:03.784Z,18.7
2018-09-17T09:10:03.727Z,19.03
2018-09-17T09:15:03.740Z,19.55
2018-09-17T09:20:03.743Z,21.65
2018-09-17T09:25:03.735Z,23.82
2018-09-17T09:30:03.734Z,24.89
2018-09-17T09:35:03.741Z,25
2018-09-17T09:40:03.757Z,24.11
2018-09-17T09:45:03.739Z,23.64
2018-09-17T09:50:03.742Z,23.4
2018-09-17T09:55:03.760Z,23.4
2018-09-17T10:00:03.748Z,23.53
2018-09-17T10:05:03.751Z,24.4
2018-09-17T10:10:03.769Z,24.9
2018-09-17T10:15:03.754Z,25.18
2018-09-17T10:20:03.759Z,25.13
2018-09-17T10:25:03.771Z,25.09
2018-09-17T10:30:03.797Z,25.22
2018-09-17T10:35:03.765Z,25.21
2018-09-17T10:40:03.787Z,25.06
2018-09-17T10:45:03.774Z,24.9
2018-09-17T10:50:03.774Z,24.64
2018-09-17T10:55:03.794Z,24.65
2018-09-17T11:00:03.779Z,24.69
2018-09-17T11:05:03.779Z,24.87
2018-09-17T11:10:03.806Z,25.08
2018-09-17T11:15:03.784Z,25.39
2018-09-17T11:20:03.792Z,25.76
2018-09-17T11:25:03.815Z,26.18
2018-09-17T11:30:03.794Z,26.53
2018-09-17T11:35:03.796Z,26.9
2018-09-17T11:40:04.813Z,27.19
2018-09-17T11:45:03.804Z,27.04
2018-09-17T11:50:03.802Z,26.98
2018-09-17T11:55:03.807Z,27.09
2018-09-17T12:00:03.824Z,27
2018-09-17T12:05:03.808Z,26.9
2018-09-17T12:10:03.818Z,26.91
2018-09-17T12:15:03.838Z,26.57
2018-09-17T12:20:03.818Z,26.34
2018-09-17T12:25:03.825Z,26.32
2018-09-17T12:30:03.831Z,26.41
2018-09-17T12:35:03.834Z,26.32
2018-09-17T12:40:03.844Z,26.32
2018-09-17T12:45:03.914Z,26.39
2018-09-17T12:50:03.839Z,26.38
2018-09-17T12:55:03.839Z,26.34
2018-09-17T13:00:03.847Z,26.38
2018-09-17T13:05:03.842Z,26.45
2018-09-17T13:10:03.844Z,26.48
2018-09-17T13:15:03.858Z,26.55
2018-09-17T13:20:03.854Z,26.75
2018-09-17T13:25:03.968Z,26.82
2018-09-17T13:30:03.885Z,26.96
2018-09-17T13:35:03.863Z,26.86
2018-09-17T13:40:03.867Z,26.73
2018-09-17T13:45:03.886Z,26.86
2018-09-17T13:50:03.875Z,27.2
2018-09-17T13:55:03.872Z,27.85
2018-09-17T14:00:03.891Z,28.88
2018-09-17T14:05:03.876Z,30.33
2018-09-17T14:10:03.957Z,32.28
2018-09-17T14:15:03.892Z,33.17
2018-09-17T14:20:03.887Z,34.23
2018-09-17T14:25:03.892Z,33.6
2018-09-17T14:30:03.900Z,32.79
2018-09-17T14:35:03.892Z,32.84
2018-09-17T14:40:03.898Z,32.68
2018-09-17T14:45:03.920Z,33.21
2018-09-17T14:50:03.900Z,33.8
2018-09-17T14:55:03.923Z,33.42
2018-09-17T15:00:03.922Z,32.92
2018-09-17T15:05:03.925Z,32.61
2018-09-17T15:10:03.916Z,32.47
2018-09-17T15:15:03.963Z,33.41
2018-09-17T15:20:03.981Z,33.3
2018-09-17T15:25:03.924Z,32.3
2018-09-17T15:30:03.930Z,30.81
2018-09-17T15:35:03.925Z,29.53
2018-09-17T15:40:04.003Z,28.43
2018-09-17T15:45:03.950Z,27.59
2018-09-17T15:50:03.962Z,27.24
2018-09-17T15:55:03.940Z,27.05
2018-09-17T16:00:03.957Z,26.79
2018-09-17T16:05:03.945Z,26.39
2018-09-17T16:10:03.950Z,26.01
2018-09-17T16:15:03.960Z,25.67
2018-09-17T16:20:04.123Z,25.27
2018-09-17T16:25:03.953Z,24.84
2018-09-17T16:30:03.970Z,24.43
2018-09-17T16:35:03.965Z,24.02
2018-09-17T16:40:03.967Z,23.62
2018-09-17T16:45:03.975Z,23.24
2018-09-17T16:50:03.972Z,22.84
2018-09-17T16:55:03.972Z,22.41
2018-09-17T17:00:03.980Z,21.94
2018-09-17T17:05:03.981Z,21.5
2018-09-17T17:10:03.987Z,21.08
2018-09-17T17:15:03.995Z,20.64
2018-09-17T17:20:03.981Z,20.2
2018-09-17T17:25:03.991Z,19.81
2018-09-17T17:30:03.996Z,19.44
2018-09-17T17:35:03.993Z,19.13
2018-09-17T17:40:04.034Z,18.87
2018-09-17T17:45:04.016Z,18.62
2018-09-17T17:50:04.017Z,18.36
2018-09-17T17:55:04.012Z,18.12
2018-09-17T18:00:04.028Z,17.91
2018-09-17T18:05:04.013Z,17.68
2018-09-17T18:10:04.031Z,17.48
2018-09-17T18:15:04.082Z,17.25
2018-09-17T18:20:04.036Z,16.96
2018-09-17T18:25:04.021Z,16.77
2018-09-17T18:30:04.040Z,16.61
2018-09-17T18:35:04.021Z,16.46
2018-09-17T18:40:04.032Z,16.31
2018-09-17T18:45:04.068Z,16.21
2018-09-17T18:50:04.089Z,16.15
2018-09-17T18:55:04.045Z,16.06
2018-09-17T19:00:04.100Z,16.02
2018-09-17T19:05:04.057Z,16
2018-09-17T19:10:04.056Z,15.99
2018-09-17T19:15:04.124Z,15.98
2018-09-17T19:20:04.115Z,15.96
2018-09-17T19:25:04.053Z,15.89
2018-09-17T19:30:04.114Z,15.82
2018-09-17T19:35:04.060Z,15.72
2018-09-17T19:40:04.083Z,15.62
2018-09-17T19:45:04.063Z,15.52
2018-09-17T19:50:04.184Z,15.38
2018-09-17T19:55:04.067Z,15.23
2018-09-17T20:00:04.073Z,15.21
2018-09-17T20:05:04.079Z,15.31
2018-09-17T20:10:04.149Z,15.38
2018-09-17T20:15:04.081Z,15.39
2018-09-17T20:20:04.108Z,15.4
2018-09-17T20:25:04.087Z,15.4
2018-09-17T20:30:04.090Z,15.32
2018-09-17T20:35:04.104Z,15.26
2018-09-17T20:40:04.090Z,15.18
2018-09-17T20:45:04.098Z,15.16
2018-09-17T20:50:04.104Z,15.12
2018-09-17T20:55:04.109Z,15.12
2018-09-17T21:00:04.107Z,15.13
2018-09-17T21:05:04.130Z,15.12
2018-09-17T21:10:04.108Z,15.08
2018-09-17T21:15:04.115Z,14.96
2018-09-17T21:20:04.116Z,14.83
2018-09-17T21:25:04.150Z,14.7
2018-09-17T21:30:04.128Z,14.64
2018-09-17T21:35:04.156Z,14.56
2018-09-17T21:40:04.129Z,14.48
2018-09-17T21:45:04.130Z,14.38
2018-09-17T21:50:04.156Z,14.17
2018-09-17T21:55:04.141Z,13.95
2018-09-17T22:00:04.135Z,13.76
2018-09-17T22:05:04.172Z,13.66
2018-09-17T22:10:04.143Z,13.63
2018-09-17T22:15:04.146Z,13.63
2018-09-17T22:20:04.171Z,13.64
2018-09-17T22:25:04.149Z,13.73
2018-09-17T22:30:04.157Z,13.75
2018-09-17T22:35:04.169Z,13.64
2018-09-17T22:40:04.157Z,13.6
2018-09-17T22:45:04.160Z,13.5
2018-09-17T22:50:04.176Z,13.36
2018-09-17T22:55:04.162Z,13.43
2018-09-17T23:00:04.173Z,13.55
2018-09-17T23:05:04.171Z,13.65
2018-09-17T23:10:04.169Z,13.73
2018-09-17T23:15:04.170Z,13.73
2018-09-17T23:20:06.678Z,13.62
2018-09-17T23:25:04.184Z,13.47
2018-09-17T23:30:04.184Z,13.23
2018-09-17T23:35:04.189Z,13.04
2018-09-17T23:40:04.192Z,12.93
2018-09-17T23:45:04.187Z,12.9
2018-09-17T23:50:04.187Z,13
2018-09-17T23:55:04.193Z,13.03
